createdAt,value
2018-09-18T05:06:00.432Z,8.47
2018-09-18T05:11:03.767Z,12.53
2018-09-18T05:16:07.114Z,7.47
2018-09-18T05:21:10.462Z,6.67
2018-09-18T05:26:13.783Z,7.80
2018-09-18T05:31:18.889Z,8.57
2018-09-18T05:36:26.054Z,8.77
2018-09-18T05:41:29.391Z,7.63
2018-09-18T05:46:35.555Z,9.60
2018-09-18T05:51:38.898Z,10.13
2018-09-18T05:56:54.409Z,9.03
2018-09-18T06:01:57.766Z,8.03
2018-09-18T06:07:01.109Z,7.20
2018-09-18T06:12:05.210Z,8.20
2018-09-18T06:17:08.547Z,8.70
2018-09-18T06:22:12.655Z,11.67
2018-09-18T06:27:15.990Z,9.80
2018-09-18T06:32:19.322Z,10.20
2018-09-18T06:37:22.663Z,8.90
2018-09-18T06:42:26.323Z,6.70
2018-09-18T06:47:30.347Z,7.47
2018-09-18T06:52:33.681Z,13.83
2018-09-18T06:57:37.780Z,10.07
2018-09-18T07:02:41.105Z,9.40
2018-09-18T07:07:44.439Z,8.50
2018-09-18T07:12:47.778Z,8.13
2018-09-18T07:17:51.155Z,7.97
2018-09-18T07:22:54.442Z,10.27
2018-09-18T07:27:57.772Z,8.17
2018-09-18T07:33:01.102Z,7.43
2018-09-18T07:38:05.198Z,8.97
2018-09-18T07:43:08.535Z,7.50
2018-09-18T07:48:12.636Z,7.93
2018-09-18T07:53:15.971Z,8.97
2018-09-18T07:58:19.324Z,7.93
2018-09-18T08:03:22.659Z,10.03
2018-09-18T08:08:26.017Z,9.00
2018-09-18T08:13:30.107Z,8.57
2018-09-18T08:18:33.446Z,6.90
2018-09-18T08:23:36.788Z,9.07
2018-09-18T08:28:40.122Z,7.13
2018-09-18T08:33:43.446Z,8.57
2018-09-18T08:38:46.774Z,8.10
2018-09-18T08:43:50.122Z,7.70
2018-09-18T08:48:53.452Z,6.83
2018-09-18T08:53:57.561Z,6.77
2018-09-18T08:59:00.916Z,7.43
2018-09-18T09:04:04.244Z,6.60
2018-09-18T09:09:07.614Z,8.20
2018-09-18T09:14:10.927Z,5.60
2018-09-18T09:19:15.028Z,5.00
2018-09-18T09:24:18.364Z,3.30
2018-09-18T09:29:21.739Z,5.63
2018-09-18T09:34:25.068Z,5.43
2018-09-18T09:39:28.455Z,5.00
2018-09-18T09:44:31.792Z,5.57
2018-09-18T09:49:35.485Z,6.63
2018-09-18T09:54:39.036Z,5.70
2018-09-18T09:59:42.380Z,5.10
2018-09-18T10:04:45.723Z,6.90
2018-09-18T10:09:49.071Z,5.03
2018-09-18T10:14:52.460Z,5.83
2018-09-18T10:19:55.803Z,5.30
2018-09-18T10:24:59.269Z,5.70
2018-09-18T10:30:02.494Z,8.10
2018-09-18T10:35:05.831Z,6.37
2018-09-18T10:40:09.194Z,4.03
2018-09-18T10:45:12.556Z,5.27
2018-09-18T10:50:15.947Z,6.63
2018-09-18T10:55:19.303Z,5.40
2018-09-18T11:00:22.674Z,4.67
2018-09-18T11:05:26.017Z,5.93
2018-09-18T11:10:29.380Z,4.03
2018-09-18T11:15:32.854Z,8.70
2018-09-18T11:20:36.207Z,5.47
2018-09-18T11:25:39.587Z,5.20
2018-09-18T11:30:42.950Z,5.47
2018-09-18T11:35:47.316Z,4.43
2018-09-18T11:40:50.645Z,6.73
2018-09-18T11:46:10.548Z,3.93
2018-09-18T11:51:13.887Z,4.63
2018-09-18T11:56:20.854Z,4.13
2018-09-18T12:01:24.191Z,5.73
2018-09-18T12:06:50.952Z,5.60
2018-09-18T12:11:55.046Z,4.70
2018-09-18T12:16:58.410Z,5.43
2018-09-18T12:22:01.727Z,5.87
2018-09-18T12:27:05.058Z,4.10
2018-09-18T12:32:08.407Z,4.33
2018-09-18T12:37:11.744Z,4.90
2018-09-18T12:42:15.282Z,5.30
2018-09-18T12:47:18.491Z,4.20
2018-09-18T12:52:21.828Z,4.10
2018-09-18T12:57:25.315Z,3.90
2018-09-18T13:02:29.291Z,5.20
2018-09-18T13:07:32.663Z,3.97
2018-09-18T13:12:36.746Z,4.10
2018-09-18T13:17:40.107Z,4.27
2018-09-18T13:22:44.212Z,3.90
2018-09-18T13:27:48.344Z,5.10
2018-09-18T13:32:51.676Z,4.20
2018-09-18T13:37:55.030Z,4.63
2018-09-18T13:42:58.397Z,3.83
2018-09-18T13:48:01.739Z,5.37
2018-09-18T13:53:05.087Z,4.10
2018-09-18T13:58:08.455Z,4.12
2018-09-18T14:03:11.796Z,4.20
2018-09-18T14:08:15.244Z,4.43
2018-09-18T14:13:18.601Z,3.42
2018-09-18T14:18:21.944Z,5.70
2018-09-18T14:23:25.285Z,4.62
2018-09-18T14:28:29.387Z,4.00
2018-09-18T14:33:32.730Z,4.12
2018-09-18T14:38:36.826Z,4.10
2018-09-18T14:43:40.159Z,5.85
2018-09-18T14:48:45.936Z,4.80
2018-09-18T14:53:50.040Z,4.40
2018-09-18T14:58:53.372Z,4.82
2018-09-18T15:03:56.724Z,4.30
2018-09-18T15:09:00.057Z,5.40
2018-09-18T15:14:03.392Z,4.70
2018-09-18T15:19:06.721Z,4.30
2018-09-18T15:24:10.075Z,3.65
2018-09-18T15:29:13.423Z,3.72
2018-09-18T15:34:16.780Z,4.72
2018-09-18T15:39:20.877Z,3.90
2018-09-18T15:44:24.308Z,4.18
2018-09-18T15:49:27.631Z,3.40
2018-09-18T15:54:31.744Z,4.05
2018-09-18T15:59:35.076Z,5.73
2018-09-18T16:04:39.284Z,6.85
2018-09-18T16:09:42.729Z,3.87
2018-09-18T16:14:46.108Z,4.73
2018-09-18T16:19:50.239Z,4.03
2018-09-18T16:24:53.604Z,3.80
2018-09-18T16:29:58.316Z,4.63
2018-09-18T16:35:01.654Z,5.57
2018-09-18T16:40:05.021Z,5.67
2018-09-18T16:45:08.346Z,4.70
2018-09-18T16:50:11.696Z,4.30
2018-09-18T16:55:15.956Z,4.83
2018-09-18T17:00:19.190Z,4.27
2018-09-18T17:05:22.519Z,3.90
2018-09-18T17:10:25.861Z,5.70
2018-09-18T17:15:29.202Z,4.70
2018-09-18T17:20:32.551Z,4.57
2018-09-18T17:25:36.882Z,3.77
2018-09-18T17:30:40.311Z,2.40
2018-09-18T17:35:43.677Z,2.43
2018-09-18T17:40:46.969Z,2.33
2018-09-18T17:46:04.690Z,3.77
2018-09-18T17:51:08.040Z,3.30
2018-09-18T17:56:18.431Z,1.50
2018-09-18T18:01:21.789Z,1.87
2018-09-18T18:06:37.638Z,2.63
2018-09-18T18:11:41.044Z,2.17
2018-09-18T18:16:52.047Z,1.83
2018-09-18T18:21:55.371Z,3.50
2018-09-18T18:32:09.284Z,2.80
2018-09-18T18:37:12.615Z,1.80
2018-09-18T18:42:16.729Z,2.00
2018-09-18T18:47:20.088Z,1.70
2018-09-18T18:52:24.226Z,1.67
2018-09-18T18:57:27.555Z,2.60
2018-09-18T19:02:31.034Z,1.57
2018-09-18T19:07:34.510Z,3.20
2018-09-18T19:12:38.067Z,1.50
2018-09-18T19:17:41.653Z,1.40
2018-09-18T19:22:45.376Z,1.73
2018-09-18T19:27:48.740Z,2.20
2018-09-18T19:32:52.589Z,2.53
2018-09-18T19:37:55.855Z,0.80
2018-09-18T19:42:59.213Z,2.20
2018-09-18T19:48:02.589Z,1.30
2018-09-18T19:53:06.738Z,1.23
2018-09-18T19:58:10.211Z,1.10
2018-09-18T20:03:13.866Z,0.93
2018-09-18T20:08:17.971Z,2.33
2018-09-18T20:13:21.339Z,1.00
2018-09-18T20:18:25.090Z,2.10
2018-09-18T20:23:28.431Z,0.73
2018-09-18T20:28:32.113Z,0.83
2018-09-18T20:33:35.736Z,1.00
2018-09-18T20:38:39.443Z,1.53
2018-09-18T20:43:42.764Z,0.77
2018-09-18T20:48:46.107Z,1.70
2018-09-18T20:53:50.216Z,1.70
2018-09-18T20:58:53.566Z,0.87
2018-09-18T21:03:57.676Z,0.83
2018-09-18T21:09:01.019Z,1.87
2018-09-18T21:14:05.151Z,1.47
2018-09-18T21:19:08.477Z,1.20
2018-09-18T21:24:11.824Z,1.90
2018-09-18T21:29:15.163Z,2.23
2018-09-18T21:34:18.495Z,0.87
2018-09-18T21:39:22.590Z,1.60
2018-09-18T21:44:26.940Z,1.30
2018-09-18T21:49:30.281Z,1.93
2018-09-18T21:54:33.616Z,2.47
2018-09-18T21:59:36.950Z,2.27
2018-09-18T22:05:05.198Z,3.27
2018-09-18T22:10:08.541Z,1.73
2018-09-18T22:15:12.280Z,2.47
2018-09-18T22:20:15.649Z,1.13
2018-09-18T22:25:19.874Z,1.77
